Time;durP1;ratioP1;P1;durP2;ratioP2;P2;SDS_P1;SDS_P2;PMS_P1;PMS_P2;Temp;Humidity;BMP_temperature;BMP_pressure;BME280_temperature;BME280_humidity;BME280_pressure;Samples;Min_cycle;Max_cycle;Signal;HPM_P1;HPM_P2
2023/10/02 00:01:51;;;;;;;18.00;12.45;;;20.40;99.90;;;;;;5016065;28;20096;-68
2023/10/02 00:04:23;;;;;;;17.65;11.43;;;20.30;99.90;;;;;;5015689;28;20034;-67
2023/10/02 00:07:05;;;;;;;20.92;12.18;;;20.30;99.90;;;;;;5015787;28;20089;-68
2023/10/02 00:09:37;;;;;;;21.20;11.80;;;20.30;99.90;;;;;;5015898;28;20121;-68
2023/10/02 00:12:11;;;;;;;17.95;11.43;;;20.30;99.90;;;;;;5015631;28;20261;-68
2023/10/02 00:14:38;;;;;;;20.88;12.18;;;20.30;99.90;;;;;;5015339;28;20026;-67
2023/10/02 00:17:08;;;;;;;17.20;11.05;;;20.30;99.90;;;;;;5015471;28;20029;-67
2023/10/02 00:19:36;;;;;;;20.88;12.75;;;20.30;99.90;;;;;;5015607;28;20557;-67
2023/10/02 00:22:08;;;;;;;17.52;11.35;;;20.30;99.90;;;;;;5015408;28;20124;-67
2023/10/02 00:24:39;;;;;;;20.98;11.95;;;20.30;99.90;;;;;;5015625;28;20457;-67
2023/10/02 00:27:09;;;;;;;19.83;12.50;;;20.30;99.90;;;;;;5015284;28;20386;-67
2023/10/02 00:29:52;;;;;;;19.83;11.80;;;20.20;99.90;;;;;;5015198;28;20030;-71
2023/10/02 00:32:20;;;;;;;;;;;20.20;99.90;;;;;;5015705;28;20018;-67
2023/10/02 00:34:47;;;;;;;17.75;11.45;;;20.20;99.90;;;;;;5014630;28;19932;-68
2023/10/02 00:37:12;;;;;;;23.75;12.95;;;20.20;99.90;;;;;;5014917;28;20115;-67
2023/10/02 00:39:39;;;;;;;21.50;12.38;;;20.20;99.90;;;;;;5015203;28;20467;-68
2023/10/02 00:42:24;;;;;;;19.77;11.82;;;20.20;99.90;;;;;;5014668;28;20025;-67
2023/10/02 00:44:54;;;;;;;20.30;13.05;;;20.20;99.90;;;;;;5015033;28;20537;-67
2023/10/02 00:47:43;;;;;;;20.63;12.63;;;20.20;99.90;;;;;;5014988;28;20018;-67
2023/10/02 00:50:17;;;;;;;20.05;12.50;;;20.20;99.90;;;;;;5014992;28;20029;-69
2023/10/02 00:52:48;;;;;;;20.92;12.73;;;20.20;99.90;;;;;;5014889;28;20034;-67
2023/10/02 00:55:20;;;;;;;18.70;11.65;;;20.20;99.90;;;;;;5014702;28;20041;-67
2023/10/02 00:57:51;;;;;;;20.52;12.38;;;20.20;99.90;;;;;;5014500;28;20034;-68
2023/10/02 01:00:30;;;;;;;19.25;11.65;;;20.20;99.90;;;;;;5014754;28;20018;-69
2023/10/02 01:02:58;;;;;;;20.02;12.07;;;20.20;99.90;;;;;;5014734;28;20030;-67
2023/10/02 01:05:41;;;;;;;20.55;12.40;;;20.10;99.90;;;;;;5014488;28;20045;-67
2023/10/02 01:08:24;;;;;;;17.85;11.95;;;20.10;99.90;;;;;;5014565;28;20026;-67
2023/10/02 01:10:58;;;;;;;21.83;12.35;;;20.10;99.90;;;;;;5014176;28;20029;-68
2023/10/02 01:13:29;;;;;;;18.17;12.30;;;20.10;99.90;;;;;;5013730;28;20030;-67
2023/10/02 01:15:56;;;;;;;17.88;12.05;;;20.10;99.90;;;;;;5014288;28;20105;-67
2023/10/02 01:18:21;;;;;;;18.42;11.55;;;20.00;99.90;;;;;;5014300;28;20037;-70
2023/10/02 01:20:48;;;;;;;21.50;12.20;;;20.00;99.90;;;;;;5014336;28;20109;-67
2023/10/02 01:23:22;;;;;;;23.58;12.65;;;20.00;99.90;;;;;;5014107;28;20152;-67
2023/10/02 01:25:49;;;;;;;18.80;11.85;;;20.00;99.90;;;;;;5014137;28;20010;-67
2023/10/02 01:28:16;;;;;;;20.08;11.85;;;20.00;99.90;;;;;;5014169;28;20105;-67
2023/10/02 01:30:44;;;;;;;18.92;12.27;;;20.00;99.90;;;;;;5014557;28;20365;-67
2023/10/02 01:35:46;;;;;;;19.73;11.57;;;20.00;99.90;;;;;;5014402;28;20038;-67
2023/10/02 01:38:31;;;;;;;17.70;11.43;;;20.00;99.90;;;;;;5013906;28;20538;-69
2023/10/02 01:41:04;;;;;;;19.73;11.93;;;20.00;99.90;;;;;;5013932;28;20168;-67
2023/10/02 01:43:33;;;;;;;17.40;11.38;;;20.00;99.90;;;;;;5013918;28;20022;-67
2023/10/02 01:46:00;;;;;;;18.67;12.02;;;19.90;99.90;;;;;;5013973;28;20022;-74
2023/10/02 01:48:36;;;;;;;20.08;11.75;;;19.90;99.90;;;;;;5012868;28;20395;-67
2023/10/02 01:51:21;;;;;;;20.63;12.02;;;19.90;99.90;;;;;;5014018;28;20097;-68
2023/10/02 01:53:56;;;;;;;18.17;11.63;;;19.90;99.90;;;;;;5013864;28;20021;-67
2023/10/02 01:56:29;;;;;;;20.65;12.23;;;19.90;99.90;;;;;;5013454;28;20387;-67
2023/10/02 01:59:16;;;;;;;21.15;12.40;;;19.90;99.90;;;;;;5013822;28;20030;-68
2023/10/02 02:01:57;;;;;;;16.77;11.57;;;19.90;99.90;;;;;;5013838;28;20026;-68
2023/10/02 02:04:27;;;;;;;22.13;11.73;;;19.90;99.90;;;;;;5013346;28;20029;-70
2023/10/02 02:06:54;;;;;;;21.25;11.68;;;19.90;99.90;;;;;;5013737;28;20037;-69
2023/10/02 02:09:24;;;;;;;19.52;11.50;;;19.80;99.90;;;;;;5013334;28;20022;-68
2023/10/02 02:12:12;;;;;;;21.02;12.38;;;19.90;99.90;;;;;;5013540;28;20017;-67
2023/10/02 02:14:51;;;;;;;18.75;11.60;;;19.80;99.90;;;;;;5013512;28;20029;-67
2023/10/02 02:17:25;;;;;;;18.58;11.35;;;19.80;99.90;;;;;;5013524;28;20057;-70
2023/10/02 02:19:51;;;;;;;20.30;11.25;;;19.80;99.90;;;;;;5013547;28;20101;-71
2023/10/02 02:22:31;;;;;;;19.45;12.27;;;19.80;99.90;;;;;;5013418;28;20018;-70
2023/10/02 02:24:58;;;;;;;19.08;11.90;;;19.80;99.90;;;;;;5013080;28;20026;-67
2023/10/02 02:27:25;;;;;;;18.38;11.20;;;19.80;99.90;;;;;;5013383;28;20033;-68
2023/10/02 02:29:54;;;;;;;19.85;12.38;;;19.80;99.90;;;;;;5013288;28;20034;-68
2023/10/02 02:32:20;;;;;;;18.98;12.55;;;19.80;99.90;;;;;;5013343;28;20426;-68
2023/10/02 02:34:47;;;;;;;19.25;11.52;;;19.80;99.90;;;;;;5013128;28;20034;-67
2023/10/02 02:37:13;;;;;;;18.25;12.35;;;19.70;99.90;;;;;;5013198;28;20042;-66
2023/10/02 02:39:39;;;;;;;18.90;11.63;;;19.70;99.90;;;;;;5012835;28;20021;-67
2023/10/02 02:42:08;;;;;;;17.90;11.40;;;19.70;99.90;;;;;;5013352;28;20030;-67
2023/10/02 02:44:39;;;;;;;17.55;11.55;;;19.70;99.90;;;;;;5013045;28;20036;-67
2023/10/02 02:47:09;;;;;;;21.05;11.68;;;19.70;99.90;;;;;;5013293;28;20414;-68
2023/10/02 02:49:51;;;;;;;17.20;11.60;;;19.70;99.90;;;;;;5013155;28;20040;-69
2023/10/02 02:52:21;;;;;;;19.67;11.55;;;19.70;99.90;;;;;;5013349;28;20022;-69
2023/10/02 02:54:48;;;;;;;16.30;11.30;;;19.70;99.90;;;;;;5012707;28;20033;-67
2023/10/02 02:57:27;;;;;;;17.60;10.55;;;19.60;99.90;;;;;;5013148;28;20121;-67
2023/10/02 03:02:46;;;;;;;22.08;11.65;;;19.50;99.90;;;;;;5017343;28;20084;-67
2023/10/02 03:05:12;;;;;;;19.48;11.95;;;19.50;99.90;;;;;;5016628;28;20037;-67
2023/10/02 03:07:39;;;;;;;17.63;11.15;;;19.50;99.90;;;;;;5016776;28;20674;-67
2023/10/02 03:10:11;;;;;;;21.65;12.10;;;19.50;99.90;;;;;;5016826;28;20041;-67
2023/10/02 03:12:44;;;;;;;;;;;19.50;99.90;;;;;;5017518;28;20033;-67
2023/10/02 03:15:13;;;;;;;18.60;11.65;;;19.40;99.90;;;;;;5016525;28;20367;-67
2023/10/02 03:17:41;;;;;;;19.67;12.55;;;19.40;99.90;;;;;;5016741;28;20034;-67
2023/10/02 03:20:24;;;;;;;18.52;11.40;;;19.40;99.90;;;;;;5016432;28;20029;-67
2023/10/02 03:22:54;;;;;;;;;;;19.40;99.90;;;;;;5016928;28;20021;-67
2023/10/02 03:25:40;;;;;;;19.05;12.10;;;19.40;99.90;;;;;;5015076;28;19928;-74
2023/10/02 03:28:16;;;;;;;19.42;12.10;;;19.40;99.90;;;;;;5016563;28;20022;-67
2023/10/02 03:30:47;;;;;;;17.48;11.13;;;19.40;99.90;;;;;;5016464;28;20026;-67
2023/10/02 03:33:22;;;;;;;22.45;11.98;;;19.30;99.90;;;;;;5016505;28;20043;-68
2023/10/02 03:36:10;;;;;;;16.98;11.32;;;19.20;99.90;;;;;;5016162;28;20040;-68
2023/10/02 03:38:43;;;;;;;19.52;11.63;;;19.20;99.90;;;;;;5016181;28;20037;-68
2023/10/02 03:41:11;;;;;;;19.08;11.80;;;19.20;99.90;;;;;;5016162;28;20026;-68
2023/10/02 03:43:43;;;;;;;19.20;12.02;;;19.20;99.90;;;;;;5016160;28;20101;-67
2023/10/02 03:46:13;;;;;;;18.30;11.27;;;19.10;99.90;;;;;;5016121;28;20364;-67
2023/10/02 03:48:39;;;;;;;20.52;12.15;;;19.20;99.90;;;;;;5016149;28;20498;-67
2023/10/02 03:51:08;;;;;;;21.90;11.70;;;19.20;99.90;;;;;;5015713;28;20029;-67
2023/10/02 03:53:34;;;;;;;18.75;12.85;;;19.30;99.90;;;;;;5016048;28;20041;-73
2023/10/02 03:58:53;;;;;;;18.15;12.10;;;19.20;99.90;;;;;;5016012;28;20049;-67
2023/10/02 04:01:31;;;;;;;19.33;11.88;;;19.20;99.90;;;;;;5014629;28;20017;-73
2023/10/02 04:06:42;;;;;;;18.33;11.60;;;19.10;99.90;;;;;;5015685;28;20074;-68
2023/10/02 04:09:23;;;;;;;18.38;12.30;;;19.10;99.90;;;;;;5015893;28;20112;-67
2023/10/02 04:11:54;;;;;;;17.75;11.25;;;19.10;99.90;;;;;;5014995;28;20394;-67
2023/10/02 04:14:34;;;;;;;19.55;12.43;;;19.10;99.90;;;;;;5015667;28;20375;-67
2023/10/02 04:19:40;;;;;;;19.25;11.48;;;19.00;99.90;;;;;;5015505;28;20038;-68
2023/10/02 04:22:07;;;;;;;20.00;12.10;;;19.00;99.90;;;;;;5015360;28;20482;-69
2023/10/02 04:24:51;;;;;;;19.40;12.23;;;19.00;99.90;;;;;;5015537;28;20095;-68
2023/10/02 04:28:00;;;;;;;18.70;11.40;;;19.00;99.90;;;;;;5015370;28;20030;-68
2023/10/02 04:32:48;;;;;;;17.73;11.10;;;18.90;99.90;;;;;;5015241;28;20022;-68
2023/10/02 04:37:59;;;;;;;19.30;12.50;;;19.00;99.90;;;;;;5015325;28;20049;-67
2023/10/02 04:40:44;;;;;;;20.30;13.02;;;18.90;99.90;;;;;;5015335;28;20062;-68
2023/10/02 04:43:23;;;;;;;18.80;11.88;;;18.90;99.90;;;;;;5015029;28;20025;-68
2023/10/02 04:46:02;;;;;;;17.45;11.23;;;18.90;99.90;;;;;;5015042;28;20018;-67
2023/10/02 04:48:38;;;;;;;19.98;12.07;;;18.80;99.90;;;;;;5015050;28;20044;-67
2023/10/02 04:51:07;;;;;;;21.08;12.43;;;18.80;99.90;;;;;;5015104;28;20041;-67
2023/10/02 04:53:35;;;;;;;18.35;11.70;;;18.80;99.90;;;;;;5014717;28;20041;-67
2023/10/02 04:56:07;;;;;;;20.05;11.98;;;18.90;99.90;;;;;;5014827;28;20085;-67
2023/10/02 04:58:36;;;;;;;18.27;10.73;;;19.10;99.90;;;;;;5014652;28;20505;-67
2023/10/02 05:03:53;;;;;;;16.77;11.00;;;19.20;99.90;;;;;;5004065;28;20538;-67
2023/10/02 05:12:22;;;;;;;17.20;11.68;;;19.30;99.90;;;;;;4995121;28;20030;-67
2023/10/02 05:14:26;;;;;;;18.15;11.65;;;19.30;99.90;;;;;;4991789;28;20394;-67
2023/10/02 05:17:17;;;;;;;16.15;11.13;;;19.30;99.90;;;;;;4994935;28;20030;-67
2023/10/02 05:19:56;;;;;;;18.92;11.82;;;19.30;99.90;;;;;;4994376;28;20042;-73
2023/10/02 05:22:27;;;;;;;20.10;11.70;;;19.30;99.90;;;;;;4994627;28;20054;-67
2023/10/02 05:24:58;;;;;;;20.65;11.88;;;19.30;99.90;;;;;;4994518;28;20061;-67
2023/10/02 05:27:33;;;;;;;16.40;10.68;;;19.30;99.90;;;;;;4994709;28;20034;-67
2023/10/02 05:30:12;;;;;;;19.08;11.70;;;19.30;99.90;;;;;;4994534;28;20033;-69
2023/10/02 05:32:39;;;;;;;20.58;11.23;;;19.30;99.90;;;;;;4994299;28;20034;-67
2023/10/02 05:37:41;;;;;;;16.60;11.60;;;19.30;99.90;;;;;;5013728;28;20491;-67
2023/10/02 05:40:37;;;;;;;17.92;11.35;;;19.30;99.90;;;;;;5013831;28;20037;-68
2023/10/02 05:45:40;;;;;;;21.30;12.45;;;19.30;99.90;;;;;;5013777;28;20079;-68
2023/10/02 05:51:09;;;;;;;;;;;19.30;99.90;;;;;;4977420;28;20054;-68
2023/10/02 05:53:37;;;;;;;17.42;10.68;;;19.30;99.90;;;;;;4993962;28;19905;-68
2023/10/02 05:56:12;;;;;;;19.33;12.30;;;19.30;99.90;;;;;;5007169;28;20022;-69
2023/10/02 05:58:44;;;;;;;16.83;11.70;;;19.20;99.90;;;;;;5011810;28;20041;-67
2023/10/02 06:01:18;;;;;;;24.75;13.60;;;19.20;99.90;;;;;;5004515;28;20033;-68
2023/10/02 06:03:56;;;;;;;20.45;11.95;;;19.30;99.90;;;;;;4994444;28;20439;-67
2023/10/02 06:06:23;;;;;;;18.73;12.13;;;19.20;99.90;;;;;;4998057;28;20109;-68
2023/10/02 06:08:55;;;;;;;21.35;13.00;;;19.20;99.90;;;;;;4996202;28;21148;-68
2023/10/02 06:11:26;;;;;;;19.15;13.00;;;19.20;99.90;;;;;;4994776;28;20480;-68
2023/10/02 06:14:09;;;;;;;21.65;13.70;;;19.20;99.90;;;;;;4993871;28;20480;-70
2023/10/02 06:16:35;;;;;;;23.58;13.32;;;19.20;99.90;;;;;;4993719;28;20031;-67
2023/10/02 06:19:01;;;;;;;27.05;13.35;;;19.20;99.90;;;;;;4993516;28;20494;-67
2023/10/02 06:21:31;;;;;;;23.08;12.85;;;19.20;99.90;;;;;;4994037;28;20026;-68
2023/10/02 06:24:00;;;;;;;23.23;13.20;;;19.20;99.90;;;;;;4993853;28;20026;-68
2023/10/02 06:26:49;;;;;;;28.00;14.85;;;19.10;99.90;;;;;;4993966;28;20042;-67
2023/10/02 06:29:25;;;;;;;26.70;14.57;;;19.10;99.90;;;;;;4993484;28;20027;-67
2023/10/02 06:32:09;;;;;;;23.67;13.85;;;19.10;99.90;;;;;;4993673;28;20042;-68
2023/10/02 06:34:39;;;;;;;21.27;13.18;;;19.10;99.90;;;;;;4993103;28;20050;-70
2023/10/02 06:37:12;;;;;;;23.75;13.32;;;19.10;99.90;;;;;;4993688;28;20107;-67
2023/10/02 06:39:40;;;;;;;21.67;13.50;;;19.20;99.90;;;;;;4993575;28;20046;-67
2023/10/02 06:42:10;;;;;;;22.23;13.18;;;19.20;99.90;;;;;;4993605;28;20365;-67
2023/10/02 06:44:52;;;;;;;20.70;13.15;;;19.20;99.90;;;;;;4993323;28;20029;-74
2023/10/02 06:47:23;;;;;;;22.00;13.27;;;19.10;99.90;;;;;;4993613;28;20022;-67
2023/10/02 06:49:51;;;;;;;22.63;13.75;;;19.20;99.90;;;;;;4993534;28;20101;-74
2023/10/02 06:52:17;;;;;;;22.08;13.43;;;19.10;99.90;;;;;;4993602;28;20026;-68
2023/10/02 06:54:45;;;;;;;27.30;14.30;;;19.20;99.90;;;;;;4993182;28;20026;-68
2023/10/02 06:57:13;;;;;;;22.25;13.85;;;19.20;99.90;;;;;;4993507;28;20030;-68
2023/10/02 06:59:51;;;;;;;29.15;14.75;;;19.20;99.90;;;;;;4993333;28;20034;-69
2023/10/02 07:02:23;;;;;;;22.70;14.40;;;19.20;99.90;;;;;;4992246;28;20468;-67
2023/10/02 07:04:49;;;;;;;25.23;13.77;;;19.10;99.90;;;;;;4993238;28;20491;-68
2023/10/02 07:07:20;;;;;;;25.02;14.90;;;19.20;99.90;;;;;;4993311;28;20584;-71
2023/10/02 07:09:48;;;;;;;24.70;13.88;;;19.20;99.90;;;;;;4993439;28;20069;-68
2023/10/02 07:12:13;;;;;;;22.65;14.07;;;19.20;99.90;;;;;;4993210;28;20027;-67
2023/10/02 07:14:41;;;;;;;28.60;14.27;;;19.20;99.90;;;;;;4992944;28;20392;-67
2023/10/02 07:17:16;;;;;;;27.38;14.65;;;19.20;99.90;;;;;;4993096;28;20015;-69
2023/10/02 07:19:50;;;;;;;26.42;13.38;;;19.20;99.90;;;;;;4993296;28;20039;-67
2023/10/02 07:22:23;;;;;;;22.90;13.77;;;19.30;99.90;;;;;;4993339;28;20035;-74
2023/10/02 07:24:57;;;;;;;27.77;14.80;;;19.30;99.90;;;;;;4993493;28;20380;-66
2023/10/02 07:27:24;;;;;;;29.48;14.25;;;19.30;99.90;;;;;;4991783;28;20026;-67
2023/10/02 07:29:55;;;;;;;22.83;13.45;;;19.30;99.90;;;;;;4993018;28;20023;-67
2023/10/02 07:32:23;;;;;;;27.02;14.52;;;19.30;99.90;;;;;;4993226;28;20387;-67
2023/10/02 07:34:53;;;;;;;24.30;15.30;;;19.30;99.90;;;;;;4993264;28;20106;-69
2023/10/02 07:37:24;;;;;;;24.35;15.07;;;19.30;99.90;;;;;;4992860;28;20027;-70
2023/10/02 07:39:56;;;;;;;22.45;14.30;;;19.40;99.90;;;;;;4993306;28;20030;-68
2023/10/02 07:42:23;;;;;;;29.67;15.70;;;19.40;99.90;;;;;;4992907;28;20452;-73
2023/10/02 07:44:49;;;;;;;31.20;15.45;;;19.40;99.90;;;;;;4992888;28;20026;-67
2023/10/02 07:47:17;;;;;;;29.50;15.43;;;19.40;99.90;;;;;;4996342;28;20022;-68
2023/10/02 07:49:47;;;;;;;26.25;15.15;;;19.50;99.90;;;;;;4996518;28;20136;-68
2023/10/02 07:52:26;;;;;;;27.73;15.15;;;19.50;99.90;;;;;;4996081;28;20028;-68
2023/10/02 07:54:59;;;;;;;25.27;14.98;;;19.60;99.90;;;;;;4996527;28;20456;-68
2023/10/02 07:57:31;;;;;;;23.80;14.98;;;19.60;99.90;;;;;;4995932;28;20091;-70
2023/10/02 08:00:52;;;;;;;26.07;14.87;;;19.60;99.90;;;;;;4996534;28;20033;-69
2023/10/02 08:02:52;;;;;;;21.90;13.77;;;19.70;99.90;;;;;;4992145;28;20293;-69
2023/10/02 08:05:20;;;;;;;24.83;15.10;;;19.70;99.90;;;;;;4995786;28;20492;-68
2023/10/02 08:07:46;;;;;;;22.35;14.63;;;19.70;99.90;;;;;;4996194;28;20046;-67
2023/10/02 08:10:13;;;;;;;23.20;14.30;;;19.70;99.90;;;;;;4996094;28;20026;-68
2023/10/02 08:12:54;;;;;;;28.67;14.40;;;19.80;99.90;;;;;;4995801;28;20038;-68
2023/10/02 08:15:26;;;;;;;23.38;13.85;;;19.80;99.90;;;;;;4995926;28;20050;-68
2023/10/02 08:23:21;;;;;;;24.83;14.35;;;19.80;99.90;;;;;;5014721;28;20129;-68
2023/10/02 08:26:02;;;;;;;21.45;13.27;;;19.90;99.90;;;;;;5013852;28;20089;-69
2023/10/02 08:28:33;;;;;;;26.73;15.13;;;19.90;99.90;;;;;;5002252;28;20460;-68
2023/10/02 08:31:02;;;;;;;22.90;15.25;;;19.90;99.90;;;;;;4998309;28;20018;-69
2023/10/02 08:33:33;;;;;;;26.38;15.18;;;19.90;99.90;;;;;;5004250;28;20077;-68
2023/10/02 08:36:01;;;;;;;24.83;14.43;;;19.90;99.90;;;;;;5001755;28;20033;-68
2023/10/02 08:38:29;;;;;;;27.10;13.05;;;19.90;99.90;;;;;;5009994;28;20121;-68
2023/10/02 08:41:03;;;;;;;20.42;11.98;;;20.00;99.90;;;;;;5014868;28;20049;-68
2023/10/02 08:43:41;;;;;;;21.40;12.95;;;20.00;99.90;;;;;;5009092;28;20035;-69
2023/10/02 08:46:08;;;;;;;24.10;13.27;;;20.00;99.90;;;;;;5001932;28;20101;-68
2023/10/02 08:48:34;;;;;;;18.83;12.10;;;20.10;99.90;;;;;;5009638;28;20134;-68
2023/10/02 08:51:00;;;;;;;17.25;11.55;;;20.00;99.90;;;;;;5014799;28;20045;-69
2023/10/02 08:53:27;;;;;;;18.30;11.10;;;20.10;99.90;;;;;;5012576;28;20487;-70
2023/10/02 08:56:04;;;;;;;16.73;11.45;;;20.20;99.90;;;;;;5010806;28;20058;-68
2023/10/02 08:58:31;;;;;;;21.77;12.38;;;20.30;99.90;;;;;;4995055;28;20550;-69
2023/10/02 09:03:46;;;;;;;19.58;11.60;;;20.30;99.90;;;;;;5014428;28;20034;-68
2023/10/02 09:11:35;;;;;;;18.45;11.00;;;20.40;99.90;;;;;;5000570;28;20458;-70
2023/10/02 09:17:07;;;;;;;20.17;13.07;;;20.40;99.90;;;;;;5014146;28;20038;-68
2023/10/02 09:19:34;;;;;;;17.95;12.23;;;20.40;99.90;;;;;;5012025;28;20113;-69
2023/10/02 09:22:07;;;;;;;16.92;11.68;;;20.40;99.90;;;;;;5013497;28;20024;-68
2023/10/02 09:24:40;;;;;;;18.80;12.23;;;20.40;99.90;;;;;;5010727;28;20026;-69
2023/10/02 09:27:30;;;;;;;18.27;11.40;;;20.50;99.90;;;;;;5005187;28;20033;-69
2023/10/02 09:32:49;;;;;;;16.65;10.65;;;20.50;99.90;;;;;;5013453;28;20041;-68
2023/10/02 09:35:22;;;;;;;17.65;10.82;;;20.50;99.90;;;;;;5013131;28;20475;-68
2023/10/02 09:37:56;;;;;;;19.20;11.15;;;20.50;99.90;;;;;;5013435;28;20041;-68
2023/10/02 09:40:54;;;;;;;18.20;10.75;;;20.50;99.90;;;;;;5010035;28;20036;-67
2023/10/02 09:43:24;;;;;;;14.98;10.25;;;20.60;99.90;;;;;;4993733;28;20029;-68
2023/10/02 09:46:05;;;;;;;21.75;12.52;;;20.60;99.90;;;;;;4993895;28;20034;-67
2023/10/02 09:51:27;;;;;;;20.17;13.05;;;20.60;99.90;;;;;;4994283;28;20089;-68
2023/10/02 09:54:05;;;;;;;17.88;12.13;;;20.70;99.90;;;;;;4993829;28;20018;-69
2023/10/02 09:56:51;;;;;;;21.60;12.68;;;20.70;99.90;;;;;;5005594;28;20475;-69
2023/10/02 09:59:21;;;;;;;16.50;11.63;;;20.70;99.90;;;;;;5011944;28;20060;-69
2023/10/02 10:02:15;;;;;;;18.13;12.15;;;20.70;99.90;;;;;;5013779;28;20018;-68
2023/10/02 10:05:22;;;;;;;17.00;11.13;;;20.70;99.90;;;;;;5010662;28;20037;-68
2023/10/02 10:08:18;;;;;;;14.85;10.13;;;20.80;99.90;;;;;;5001477;28;20070;-69
2023/10/02 10:11:10;;;;;;;18.35;11.95;;;20.70;99.90;;;;;;5006467;28;20117;-68
2023/10/02 10:13:37;;;;;;;17.55;11.48;;;20.80;99.90;;;;;;5007822;28;20026;-69
2023/10/02 10:16:21;;;;;;;19.50;12.25;;;20.80;99.90;;;;;;5005926;28;20101;-68
2023/10/02 10:28:14;;;;;;;14.98;11.43;;;20.90;99.90;;;;;;5007712;28;20088;-68
2023/10/02 10:30:46;;;;;;;15.30;10.40;;;20.90;99.90;;;;;;5011383;28;20475;-69
2023/10/02 10:33:16;;;;;;;17.88;11.50;;;20.90;99.90;;;;;;5007516;28;20558;-68
2023/10/02 10:35:57;;;;;;;21.38;11.15;;;20.90;99.90;;;;;;5001205;28;20030;-69
2023/10/02 10:38:28;;;;;;;16.95;10.93;;;21.00;99.90;;;;;;5004417;28;20073;-69
2023/10/02 10:41:01;;;;;;;19.00;11.30;;;21.00;99.90;;;;;;5008346;28;20112;-68
2023/10/02 10:43:43;;;;;;;18.23;10.75;;;21.00;99.90;;;;;;5010400;28;20037;-68
2023/10/02 10:46:28;;;;;;;19.30;11.05;;;21.00;99.90;;;;;;5009480;28;20022;-68
2023/10/02 10:49:07;;;;;;;17.40;10.95;;;21.00;99.90;;;;;;4999780;28;20117;-69
2023/10/02 10:51:40;;;;;;;18.95;10.75;;;21.10;99.90;;;;;;5017706;28;20044;-69
2023/10/02 10:54:12;;;;;;;21.58;12.23;;;21.10;99.90;;;;;;4997932;28;20026;-68
2023/10/02 10:56:44;;;;;;;23.38;12.50;;;21.10;99.90;;;;;;5010063;28;20531;-71
2023/10/02 10:59:12;;;;;;;17.90;11.88;;;21.10;99.90;;;;;;5012320;28;20025;-68
2023/10/02 11:02:12;;;;;;;29.42;14.95;;;21.10;99.90;;;;;;5009182;28;20030;-69
2023/10/02 11:04:48;;;;;;;24.15;14.57;;;21.20;99.90;;;;;;5010740;28;20026;-71
2023/10/02 11:07:25;;;;;;;18.27;11.50;;;21.30;99.90;;;;;;5012109;28;20556;-69
2023/10/02 11:10:19;;;;;;;21.70;13.73;;;21.30;99.90;;;;;;5005187;28;20387;-69
2023/10/02 11:13:00;;;;;;;18.67;10.90;;;21.30;99.90;;;;;;4997783;28;20030;-70
2023/10/02 11:15:46;;;;;;;16.70;10.90;;;21.40;99.90;;;;;;5013062;28;20029;-69
2023/10/02 11:18:20;;;;;;;21.83;12.30;;;21.40;99.90;;;;;;5012814;28;20479;-69
2023/10/02 11:21:23;;;;;;;17.17;10.65;;;21.40;99.90;;;;;;4998171;28;20026;-69
2023/10/02 11:23:49;;;;;;;18.38;11.30;;;21.40;99.90;;;;;;5007806;28;20034;-69
2023/10/02 11:26:21;;;;;;;19.60;11.18;;;21.50;99.90;;;;;;5019579;28;20048;-69
2023/10/02 11:28:50;;;;;;;17.45;11.60;;;21.50;99.90;;;;;;5001402;28;20106;-69
2023/10/02 11:31:36;;;;;;;18.52;12.13;;;21.60;99.90;;;;;;5005313;28;20080;-69
2023/10/02 11:34:02;;;;;;;17.45;11.07;;;21.60;99.90;;;;;;5003661;28;20478;-70
2023/10/02 11:36:33;;;;;;;18.80;11.05;;;21.70;99.90;;;;;;5007647;28;20416;-69
2023/10/02 11:39:19;;;;;;;19.23;11.02;;;21.60;99.90;;;;;;5005708;28;20030;-69
2023/10/02 11:41:46;;;;;;;18.45;12.05;;;21.60;99.90;;;;;;5017867;28;20036;-69
2023/10/02 11:44:13;;;;;;;27.08;15.52;;;21.70;99.90;;;;;;5013634;28;20387;-68
2023/10/02 11:46:48;;;;;;;24.98;13.25;;;21.70;99.90;;;;;;5009254;28;20034;-70
2023/10/02 11:49:14;;;;;;;17.33;11.45;;;21.80;99.90;;;;;;5013144;28;20081;-69
2023/10/02 11:51:40;;;;;;;25.88;13.95;;;21.80;99.90;;;;;;5014002;28;20498;-69
2023/10/02 11:54:09;;;;;;;20.83;12.95;;;21.80;99.90;;;;;;5015135;28;20092;-71
2023/10/02 11:56:35;;;;;;;17.58;12.13;;;21.80;99.90;;;;;;5019611;28;20394;-69
2023/10/02 11:59:02;;;;;;;25.17;14.52;;;21.80;99.90;;;;;;5013456;28;20084;-69
2023/10/02 12:01:28;;;;;;;17.88;11.77;;;21.90;99.90;;;;;;5008389;28;20391;-70
2023/10/02 12:03:57;;;;;;;25.10;14.18;;;21.90;99.90;;;;;;5010730;28;20489;-71
2023/10/02 12:06:27;;;;;;;19.63;11.77;;;21.90;99.90;;;;;;5014562;28;20033;-71
2023/10/02 12:08:58;;;;;;;21.80;12.48;;;22.00;99.90;;;;;;5015359;28;20025;-71
2023/10/02 12:11:28;;;;;;;20.20;12.20;;;22.00;99.90;;;;;;5011005;28;20048;-71
2023/10/02 12:13:55;;;;;;;20.20;12.52;;;22.00;99.90;;;;;;4995453;28;20054;-74
2023/10/02 12:16:24;;;;;;;20.13;11.77;;;22.00;99.90;;;;;;5006185;28;20026;-73
2023/10/02 12:18:50;;;;;;;18.67;11.55;;;22.00;99.90;;;;;;5007675;28;20395;-71
2023/10/02 12:21:17;;;;;;;20.75;13.90;;;22.00;99.90;;;;;;5002917;28;20026;-70
2023/10/02 12:23:44;;;;;;;19.42;13.20;;;22.10;99.90;;;;;;5005913;28;20038;-75
2023/10/02 12:26:14;;;;;;;17.70;12.40;;;22.20;99.90;;;;;;5004816;28;20022;-71
2023/10/02 12:28:41;;;;;;;21.38;12.82;;;22.20;99.90;;;;;;5014443;28;20022;-70
2023/10/02 12:31:14;;;;;;;18.77;11.02;;;22.20;99.90;;;;;;5013929;28;20018;-70
2023/10/02 12:33:44;;;;;;;22.90;12.30;;;22.20;99.90;;;;;;4998400;28;20034;-72
2023/10/02 12:36:11;;;;;;;17.17;11.70;;;22.30;99.90;;;;;;5010833;28;20026;-75
2023/10/02 12:38:38;;;;;;;20.48;12.88;;;22.30;99.90;;;;;;5016810;28;20053;-74
2023/10/02 12:41:14;;;;;;;18.08;11.52;;;22.30;99.90;;;;;;5003351;28;20049;-72
2023/10/02 12:43:42;;;;;;;20.73;11.90;;;22.40;99.90;;;;;;5012735;28;20144;-74
2023/10/02 12:46:07;;;;;;;18.77;12.02;;;22.40;99.90;;;;;;5004181;28;20053;-71
2023/10/02 12:48:33;;;;;;;20.58;12.80;;;22.40;99.90;;;;;;5007075;28;20440;-71
2023/10/02 12:51:05;;;;;;;20.15;13.18;;;22.40;99.90;;;;;;5006336;28;20041;-71
2023/10/02 12:53:31;;;;;;;19.92;12.80;;;22.50;99.90;;;;;;5003188;28;20030;-72
2023/10/02 12:55:58;;;;;;;22.33;12.57;;;22.50;99.90;;;;;;5019974;28;20030;-71
2023/10/02 12:58:23;;;;;;;24.67;13.75;;;22.50;99.90;;;;;;5003751;28;20530;-71
2023/10/02 13:00:50;;;;;;;24.17;13.23;;;22.50;99.90;;;;;;5013935;28;20022;-72
2023/10/02 13:03:16;;;;;;;21.10;13.50;;;22.50;99.90;;;;;;4996592;28;20030;-71
2023/10/02 13:05:43;;;;;;;27.48;13.45;;;22.50;99.90;;;;;;4994844;28;20041;-71
2023/10/02 13:08:09;;;;;;;25.58;14.32;;;22.50;99.90;;;;;;4995109;28;20014;-71
2023/10/02 13:10:35;;;;;;;24.35;14.02;;;22.50;99.90;;;;;;4994976;28;20034;-71
2023/10/02 13:13:01;;;;;;;22.95;13.90;;;22.60;99.90;;;;;;4996343;28;20387;-75
2023/10/02 13:15:28;;;;;;;25.17;14.18;;;22.60;99.90;;;;;;5007962;28;20318;-72
2023/10/02 13:17:53;;;;;;;20.55;13.60;;;22.60;99.90;;;;;;4993276;28;20088;-71
2023/10/02 13:20:19;;;;;;;19.90;12.75;;;22.60;99.90;;;;;;4993176;28;20034;-72
2023/10/02 13:22:45;;;;;;;19.67;12.18;;;22.60;99.90;;;;;;5004660;28;20176;-70
2023/10/02 13:25:14;;;;;;;25.88;13.77;;;22.70;99.90;;;;;;5003297;28;20026;-71
2023/10/02 13:27:40;;;;;;;20.25;12.45;;;22.70;99.90;;;;;;5014132;28;20037;-71
2023/10/02 13:30:11;;;;;;;24.17;14.02;;;22.70;99.90;;;;;;5013830;28;20026;-71
2023/10/02 13:32:37;;;;;;;21.63;12.85;;;22.70;99.90;;;;;;4994294;28;20579;-69
2023/10/02 13:35:05;;;;;;;42.55;15.05;;;22.70;99.90;;;;;;4994791;28;20101;-75
2023/10/02 13:37:34;;;;;;;24.05;13.20;;;22.80;99.90;;;;;;4994396;28;20039;-69
2023/10/02 13:40:00;;;;;;;24.02;12.73;;;22.80;99.90;;;;;;4994397;28;20034;-70
2023/10/02 13:42:25;;;;;;;22.33;13.30;;;22.80;99.90;;;;;;4994503;28;20026;-74
2023/10/02 13:44:51;;;;;;;22.08;13.52;;;22.80;99.90;;;;;;4994295;28;20051;-69
2023/10/02 13:47:17;;;;;;;18.67;12.68;;;22.80;99.90;;;;;;4994117;28;20096;-69
2023/10/02 13:49:43;;;;;;;19.33;12.50;;;22.80;99.90;;;;;;4993078;28;20034;-70
2023/10/02 13:52:09;;;;;;;21.13;12.68;;;22.80;99.90;;;;;;4994381;28;20460;-70
2023/10/02 13:54:37;;;;;;;21.33;13.63;;;22.80;99.90;;;;;;4994131;28;20539;-69
2023/10/02 13:57:04;;;;;;;18.88;12.15;;;22.80;99.90;;;;;;4994213;28;20119;-75
2023/10/02 13:59:32;;;;;;;23.15;14.10;;;22.80;99.90;;;;;;4993962;28;20030;-70
2023/10/02 14:01:58;;;;;;;22.33;13.60;;;22.80;99.90;;;;;;4993957;28;20085;-70